createdAt,value
2017-09-22T00:00:51.855Z,95.70
2017-09-22T00:03:22.794Z,95.70
2017-09-22T00:05:50.296Z,95.90
2017-09-22T00:08:18.930Z,95.90
2017-09-22T00:10:46.423Z,95.90
2017-09-22T00:13:13.916Z,95.80
2017-09-22T00:15:43.150Z,95.70
2017-09-22T00:18:10.646Z,96.00
2017-09-22T00:20:38.619Z,95.70
2017-09-22T00:23:06.454Z,95.70
2017-09-22T00:25:33.964Z,95.70
2017-09-22T00:28:01.898Z,95.80
2017-09-22T00:30:29.400Z,95.80
2017-09-22T00:32:56.899Z,95.80
2017-09-22T00:35:24.752Z,95.70
2017-09-22T00:37:52.352Z,95.70
2017-09-22T00:40:19.895Z,95.50
2017-09-22T00:42:47.392Z,95.40
2017-09-22T00:45:16.700Z,95.40
2017-09-22T00:47:45.893Z,95.30
2017-09-22T00:50:13.685Z,95.30
2017-09-22T00:52:41.732Z,95.20
2017-09-22T00:55:09.234Z,95.10
2017-09-22T00:57:36.819Z,95.20
2017-09-22T01:00:05.268Z,95.60
2017-09-22T01:02:37.084Z,95.30
2017-09-22T01:05:05.560Z,95.50
2017-09-22T01:07:33.878Z,95.70
2017-09-22T01:10:01.408Z,95.70
2017-09-22T01:12:30.932Z,96.10
2017-09-22T01:14:58.478Z,95.90
2017-09-22T01:17:29.496Z,95.90
2017-09-22T01:19:57.963Z,95.80
2017-09-22T01:22:25.508Z,95.90
2017-09-22T01:24:53.017Z,95.90
2017-09-22T01:27:20.868Z,96.00
2017-09-22T01:29:48.866Z,96.10
2017-09-22T01:32:16.444Z,96.20
2017-09-22T01:34:44.753Z,96.10
2017-09-22T01:37:12.298Z,96.00
2017-09-22T01:39:40.028Z,95.80
2017-09-22T01:42:07.598Z,95.60
2017-09-22T01:44:35.151Z,95.60
2017-09-22T01:47:03.343Z,95.50
2017-09-22T01:49:30.883Z,95.50
2017-09-22T01:51:58.567Z,95.60
2017-09-22T01:54:26.115Z,95.60
2017-09-22T01:56:53.711Z,95.70
2017-09-22T01:59:21.215Z,95.80
2017-09-22T02:01:48.974Z,95.80
2017-09-22T02:04:17.260Z,95.90
2017-09-22T02:06:44.802Z,96.00
2017-09-22T02:09:12.306Z,96.00
2017-09-22T02:11:39.847Z,95.90
2017-09-22T02:14:07.367Z,96.00
2017-09-22T02:16:34.903Z,96.00
2017-09-22T02:19:02.407Z,95.90
2017-09-22T02:21:30.731Z,95.90
2017-09-22T02:23:58.227Z,95.80
2017-09-22T02:26:25.760Z,95.80
2017-09-22T02:28:53.251Z,96.00
2017-09-22T02:31:21.556Z,95.90
2017-09-22T02:33:50.519Z,95.60
2017-09-22T02:36:18.051Z,95.60
2017-09-22T02:38:46.367Z,95.60
2017-09-22T02:41:14.796Z,95.60
2017-09-22T02:43:42.764Z,95.90
2017-09-22T02:46:10.685Z,96.00
2017-09-22T02:48:39.179Z,96.00
2017-09-22T02:51:06.803Z,96.00
2017-09-22T02:53:35.107Z,95.90
2017-09-22T02:56:02.628Z,96.00
2017-09-22T02:58:30.912Z,96.00
2017-09-22T03:00:59.584Z,95.90
2017-09-22T03:03:28.802Z,95.70
2017-09-22T03:05:57.124Z,95.80
2017-09-22T03:08:24.658Z,95.80
2017-09-22T03:10:52.159Z,95.80
2017-09-22T03:13:19.697Z,96.00
2017-09-22T03:15:48.172Z,96.10
2017-09-22T03:18:15.672Z,96.20
2017-09-22T03:20:43.202Z,96.10
2017-09-22T03:23:10.747Z,96.00
2017-09-22T03:25:38.251Z,96.00
2017-09-22T03:28:07.432Z,96.10
2017-09-22T03:30:36.613Z,96.00
2017-09-22T03:33:04.127Z,96.00
2017-09-22T03:35:32.111Z,96.00
2017-09-22T03:37:59.714Z,96.20
2017-09-22T03:40:28.748Z,96.20
2017-09-22T03:42:56.965Z,96.20
2017-09-22T03:45:24.893Z,96.20
2017-09-22T03:47:52.663Z,96.10
2017-09-22T03:50:20.440Z,96.00
2017-09-22T03:52:47.972Z,96.10
2017-09-22T03:55:16.892Z,96.20
2017-09-22T03:57:44.396Z,96.20
2017-09-22T04:00:11.903Z,96.30
2017-09-22T04:02:40.367Z,96.10
2017-09-22T04:05:07.904Z,96.20
2017-09-22T04:07:35.425Z,96.20
2017-09-22T04:10:02.949Z,96.00
2017-09-22T04:12:30.455Z,95.90
2017-09-22T04:14:58.067Z,95.90
2017-09-22T04:17:25.576Z,96.00
2017-09-22T04:19:53.135Z,96.20
2017-09-22T04:22:20.659Z,96.10
2017-09-22T04:24:49.239Z,96.20
2017-09-22T04:27:16.753Z,96.20
2017-09-22T04:29:44.654Z,96.00
2017-09-22T04:32:12.222Z,95.90
2017-09-22T04:34:39.788Z,96.30
2017-09-22T04:37:07.880Z,96.10
2017-09-22T04:39:35.390Z,96.10
2017-09-22T04:42:03.179Z,96.20
2017-09-22T04:44:30.859Z,96.20
2017-09-22T04:46:58.375Z,96.10
2017-09-22T04:49:25.905Z,96.10
2017-09-22T04:51:54.547Z,96.10
2017-09-22T04:54:22.051Z,96.10
2017-09-22T04:56:49.561Z,96.00
2017-09-22T04:59:17.126Z,96.00
2017-09-22T05:01:44.639Z,96.00
2017-09-22T05:04:12.210Z,95.90
2017-09-22T05:06:44.533Z,95.70
2017-09-22T05:09:12.154Z,95.70
2017-09-22T05:11:39.829Z,95.70
2017-09-22T05:14:07.389Z,95.80
2017-09-22T05:16:35.875Z,96.00
2017-09-22T05:19:03.400Z,96.00
2017-09-22T05:21:35.729Z,95.90
2017-09-22T05:24:03.431Z,95.90
2017-09-22T05:26:31.095Z,95.80
2017-09-22T05:28:58.606Z,96.00
2017-09-22T05:31:26.446Z,95.50
2017-09-22T05:33:54.212Z,95.30
2017-09-22T05:36:21.766Z,95.30
2017-09-22T05:38:49.871Z,95.10
2017-09-22T05:41:17.375Z,95.10
2017-09-22T05:43:44.910Z,94.90
2017-09-22T05:46:13.647Z,94.70
2017-09-22T05:48:41.179Z,94.60
2017-09-22T05:51:10.447Z,94.60
2017-09-22T05:53:41.246Z,94.60
2017-09-22T05:56:09.675Z,94.20
2017-09-22T05:58:37.260Z,94.00
2017-09-22T06:01:04.841Z,93.50
2017-09-22T06:03:32.420Z,93.00
2017-09-22T06:05:59.931Z,92.60
2017-09-22T06:08:27.455Z,92.30
2017-09-22T06:10:54.998Z,92.30
2017-09-22T06:13:23.068Z,92.00
2017-09-22T06:15:50.959Z,91.50
2017-09-22T06:18:18.863Z,91.40
2017-09-22T06:20:46.371Z,91.50
2017-09-22T06:23:13.870Z,91.50
2017-09-22T06:25:43.173Z,91.40
2017-09-22T06:28:12.603Z,91.40
2017-09-22T06:30:40.163Z,91.40
2017-09-22T06:33:07.716Z,91.30
2017-09-22T06:35:35.273Z,91.10
2017-09-22T06:38:02.788Z,91.00
2017-09-22T06:40:33.384Z,91.00
2017-09-22T06:43:00.896Z,90.90
2017-09-22T06:45:29.199Z,90.40
2017-09-22T06:47:56.749Z,90.40
2017-09-22T06:50:24.273Z,89.70
2017-09-22T06:52:51.808Z,88.40
2017-09-22T06:55:19.367Z,87.80
2017-09-22T06:57:46.876Z,88.40
2017-09-22T07:00:15.875Z,88.20
2017-09-22T07:02:43.383Z,88.10
2017-09-22T07:05:10.909Z,87.20
2017-09-22T07:07:38.519Z,87.80
2017-09-22T07:10:07.147Z,88.10
2017-09-22T07:12:35.518Z,88.00
2017-09-22T07:15:03.293Z,87.90
2017-09-22T07:17:30.867Z,88.50
2017-09-22T07:19:58.427Z,88.10
2017-09-22T07:22:25.945Z,88.10
2017-09-22T07:24:53.528Z,87.80
2017-09-22T07:27:21.078Z,88.90
2017-09-22T07:29:49.199Z,88.30
2017-09-22T07:32:16.988Z,88.20
2017-09-22T07:34:44.566Z,88.40
2017-09-22T07:37:13.831Z,88.60
2017-09-22T07:39:41.843Z,88.60
2017-09-22T07:42:09.684Z,87.70
2017-09-22T07:44:38.921Z,88.20
2017-09-22T07:47:06.436Z,87.60
2017-09-22T07:49:37.714Z,87.20
2017-09-22T07:52:05.275Z,87.10
2017-09-22T07:54:34.028Z,86.00
2017-09-22T07:57:01.995Z,86.00
2017-09-22T07:59:29.563Z,86.40
2017-09-22T08:01:58.774Z,85.50
2017-09-22T08:04:27.968Z,85.90
2017-09-22T08:06:55.875Z,85.90
2017-09-22T08:09:23.391Z,84.30
2017-09-22T08:11:52.617Z,84.00
2017-09-22T08:14:20.166Z,83.90
2017-09-22T08:16:48.111Z,84.10
2017-09-22T08:19:15.676Z,84.30
2017-09-22T08:21:43.223Z,84.10
2017-09-22T08:24:11.518Z,84.10
2017-09-22T08:26:39.856Z,84.40
2017-09-22T08:29:07.399Z,84.40
2017-09-22T08:31:34.915Z,83.90
2017-09-22T08:34:02.509Z,83.90
2017-09-22T08:36:30.065Z,83.30
2017-09-22T08:38:57.567Z,82.50
2017-09-22T08:41:26.159Z,82.60
2017-09-22T08:43:54.447Z,83.30
2017-09-22T08:46:21.964Z,83.30
2017-09-22T08:48:49.545Z,83.30
2017-09-22T08:51:17.856Z,83.30
2017-09-22T08:53:45.403Z,83.30
2017-09-22T08:56:14.019Z,82.70
2017-09-22T08:58:41.575Z,82.00
2017-09-22T09:01:10.854Z,83.40
2017-09-22T09:03:38.373Z,83.40
2017-09-22T09:06:05.886Z,83.00
2017-09-22T09:08:35.135Z,83.70
2017-09-22T09:11:02.644Z,83.50
2017-09-22T09:13:30.411Z,83.80
2017-09-22T09:15:57.959Z,83.30
2017-09-22T09:18:25.544Z,82.70
2017-09-22T09:20:53.856Z,82.00
2017-09-22T09:23:21.371Z,80.60
2017-09-22T09:25:52.300Z,79.60
2017-09-22T09:28:19.866Z,78.80
2017-09-22T09:30:47.371Z,78.20
2017-09-22T09:33:15.266Z,77.60
2017-09-22T09:35:43.979Z,77.10
2017-09-22T09:38:11.499Z,77.10
2017-09-22T09:40:44.273Z,77.40
2017-09-22T09:43:12.197Z,77.40
2017-09-22T09:45:39.727Z,77.20
2017-09-22T09:48:08.059Z,76.40
2017-09-22T09:50:36.364Z,76.80
2017-09-22T09:53:04.693Z,75.90
2017-09-22T09:55:33.123Z,75.90
2017-09-22T09:58:00.963Z,75.30
2017-09-22T10:00:28.474Z,74.40
2017-09-22T10:02:55.996Z,74.30
2017-09-22T10:05:24.315Z,75.40
2017-09-22T10:07:51.944Z,75.30
2017-09-22T10:10:19.481Z,75.60
2017-09-22T10:12:47.054Z,75.30
2017-09-22T10:15:14.757Z,75.30
2017-09-22T10:17:42.409Z,74.20
2017-09-22T10:20:09.928Z,73.80
2017-09-22T10:22:38.219Z,74.00
2017-09-22T10:25:06.040Z,74.00
2017-09-22T10:27:36.605Z,75.20
2017-09-22T10:30:04.563Z,76.70
2017-09-22T10:32:32.176Z,77.90
2017-09-22T10:35:00.528Z,78.50
2017-09-22T10:37:28.848Z,77.60
2017-09-22T10:39:56.395Z,77.60
2017-09-22T10:42:24.315Z,77.80
2017-09-22T10:44:52.150Z,76.50
2017-09-22T10:47:19.672Z,74.10
2017-09-22T10:49:47.230Z,74.30
2017-09-22T10:52:15.055Z,72.30
2017-09-22T10:54:42.574Z,72.30
2017-09-22T10:57:10.138Z,70.70
2017-09-22T10:59:38.614Z,71.30
2017-09-22T11:02:06.170Z,70.60
2017-09-22T11:04:33.741Z,69.10
2017-09-22T11:07:01.392Z,68.50
2017-09-22T11:09:29.075Z,67.30
2017-09-22T11:11:56.595Z,66.30
2017-09-22T11:14:24.143Z,67.10
2017-09-22T11:16:52.769Z,67.20
2017-09-22T11:19:20.364Z,66.60
2017-09-22T11:21:48.225Z,66.40
2017-09-22T11:24:15.735Z,67.10
2017-09-22T11:26:43.263Z,66.50
2017-09-22T11:29:11.434Z,64.50
2017-09-22T11:31:39.272Z,63.60
2017-09-22T11:34:06.288Z,63.70
2017-09-22T11:36:33.801Z,63.00
2017-09-22T11:39:02.294Z,62.30
2017-09-22T11:41:29.855Z,62.30
2017-09-22T11:43:58.134Z,60.90
2017-09-22T11:46:25.770Z,60.90
2017-09-22T11:48:53.338Z,60.50
2017-09-22T11:51:20.984Z,60.30
2017-09-22T11:53:48.511Z,61.60
2017-09-22T11:56:16.057Z,59.50
2017-09-22T11:58:44.351Z,57.80
2017-09-22T12:01:11.911Z,57.90
2017-09-22T12:03:39.430Z,56.00
2017-09-22T12:06:07.754Z,56.40
2017-09-22T12:08:35.327Z,56.40
2017-09-22T12:11:04.635Z,54.70
2017-09-22T12:13:35.994Z,54.70
2017-09-22T12:16:04.333Z,52.60
2017-09-22T12:18:32.240Z,53.00
2017-09-22T12:21:00.603Z,52.40
2017-09-22T12:23:29.079Z,52.30
2017-09-22T12:25:56.610Z,51.90
2017-09-22T12:28:25.108Z,51.70
2017-09-22T12:30:53.588Z,50.60
2017-09-22T12:33:21.135Z,51.70
2017-09-22T12:35:48.640Z,51.70
2017-09-22T12:38:16.941Z,51.60
2017-09-22T12:40:44.473Z,51.50
2017-09-22T12:43:13.447Z,50.30
2017-09-22T12:45:40.968Z,50.10
2017-09-22T12:48:08.622Z,50.80
2017-09-22T12:50:36.396Z,52.10
2017-09-22T12:53:03.924Z,52.70
2017-09-22T12:55:32.311Z,52.10
2017-09-22T12:57:59.863Z,51.30
2017-09-22T13:00:27.693Z,51.60
2017-09-22T13:02:55.267Z,52.20
2017-09-22T13:05:23.570Z,52.90
2017-09-22T13:07:51.153Z,52.90
2017-09-22T13:10:18.751Z,51.60
2017-09-22T13:12:46.302Z,50.60
2017-09-22T13:15:13.856Z,50.70
2017-09-22T13:17:41.396Z,49.80
2017-09-22T13:20:10.530Z,50.10
2017-09-22T13:22:38.041Z,49.90
2017-09-22T13:25:05.547Z,46.70
2017-09-22T13:27:34.081Z,45.30
2017-09-22T13:30:04.610Z,45.30
2017-09-22T13:32:32.110Z,44.10
2017-09-22T13:34:59.676Z,44.40
2017-09-22T13:37:28.083Z,44.70
2017-09-22T13:39:55.599Z,43.80
2017-09-22T13:42:23.169Z,43.10
2017-09-22T13:44:50.678Z,43.20
2017-09-22T13:47:19.117Z,44.00
2017-09-22T13:49:47.056Z,45.50
2017-09-22T13:52:14.566Z,44.70
2017-09-22T13:54:43.823Z,45.90
2017-09-22T13:57:11.399Z,45.70
2017-09-22T13:59:38.936Z,44.70
2017-09-22T14:02:06.545Z,44.60
2017-09-22T14:04:34.844Z,45.80
2017-09-22T14:07:03.197Z,45.80
2017-09-22T14:09:30.756Z,46.40
2017-09-22T14:11:59.031Z,48.20
2017-09-22T14:14:26.667Z,48.20
2017-09-22T14:16:54.527Z,47.20
2017-09-22T14:19:22.080Z,48.70
2017-09-22T14:21:49.711Z,50.10
2017-09-22T14:24:17.261Z,50.40
2017-09-22T14:26:45.079Z,51.70
2017-09-22T14:29:12.608Z,49.80
2017-09-22T14:31:43.668Z,48.80
2017-09-22T14:34:11.409Z,49.10
2017-09-22T14:36:39.679Z,48.40
2017-09-22T14:39:07.212Z,48.20
2017-09-22T14:41:34.762Z,49.20
2017-09-22T14:44:03.080Z,49.20
2017-09-22T14:46:30.883Z,49.20
2017-09-22T14:48:58.438Z,47.00
2017-09-22T14:51:25.927Z,46.50
2017-09-22T14:53:53.883Z,47.00
2017-09-22T14:56:22.305Z,46.20
2017-09-22T14:58:49.859Z,46.20
2017-09-22T15:01:17.369Z,48.30
2017-09-22T15:03:44.939Z,49.20
2017-09-22T15:06:13.211Z,47.00
2017-09-22T15:08:41.736Z,46.10
2017-09-22T15:11:09.404Z,46.10
2017-09-22T15:13:37.166Z,44.30
2017-09-22T15:16:09.016Z,44.70
2017-09-22T15:18:36.569Z,46.00
2017-09-22T15:21:04.770Z,48.40
2017-09-22T15:23:32.424Z,48.90
2017-09-22T15:25:59.979Z,46.80
2017-09-22T15:28:27.487Z,47.20
2017-09-22T15:30:55.804Z,45.50
2017-09-22T15:33:23.365Z,45.50
2017-09-22T15:35:50.924Z,46.40
2017-09-22T15:38:18.750Z,48.90
2017-09-22T15:40:47.065Z,53.50
2017-09-22T15:43:15.021Z,53.60
2017-09-22T15:45:42.606Z,52.50
2017-09-22T15:48:10.162Z,48.60
2017-09-22T15:50:37.717Z,54.50
2017-09-22T15:53:05.309Z,50.60
2017-09-22T15:55:32.995Z,48.90
2017-09-22T15:58:00.875Z,48.90
2017-09-22T16:00:28.435Z,48.80
2017-09-22T16:02:56.746Z,51.10
2017-09-22T16:05:24.259Z,51.00
2017-09-22T16:07:52.575Z,53.50
2017-09-22T16:10:21.564Z,53.40
2017-09-22T16:12:49.068Z,53.40
2017-09-22T16:15:16.645Z,53.40
2017-09-22T16:17:45.931Z,55.70
2017-09-22T16:20:14.256Z,55.40
2017-09-22T16:22:42.574Z,56.20
2017-09-22T16:25:10.883Z,56.50
2017-09-22T16:27:38.677Z,56.50
2017-09-22T16:30:06.208Z,59.10
2017-09-22T16:32:35.407Z,60.70
2017-09-22T16:35:10.226Z,60.60
2017-09-22T16:37:38.032Z,59.90
2017-09-22T16:40:05.590Z,59.80
2017-09-22T16:42:33.095Z,62.00
2017-09-22T16:45:01.064Z,61.90
2017-09-22T16:47:28.608Z,63.40
2017-09-22T16:49:56.140Z,65.40
2017-09-22T16:52:25.285Z,69.10
2017-09-22T16:54:52.803Z,70.50
2017-09-22T16:57:20.363Z,71.60
2017-09-22T16:59:48.811Z,72.80
2017-09-22T17:02:16.341Z,72.30
2017-09-22T17:04:43.921Z,73.80
2017-09-22T17:07:12.195Z,75.60
2017-09-22T17:09:40.484Z,77.00
2017-09-22T17:12:08.626Z,76.30
2017-09-22T17:14:37.097Z,77.00
2017-09-22T17:17:04.648Z,77.90
2017-09-22T17:19:33.083Z,79.20
2017-09-22T17:22:00.702Z,79.40
2017-09-22T17:24:28.201Z,80.10
2017-09-22T17:26:55.790Z,80.60
2017-09-22T17:29:23.651Z,81.00
2017-09-22T17:31:51.164Z,81.80
2017-09-22T17:34:23.805Z,83.60
2017-09-22T17:36:51.758Z,83.50
2017-09-22T17:39:19.265Z,83.20
2017-09-22T17:41:48.199Z,85.30
2017-09-22T17:44:15.714Z,84.90
2017-09-22T17:46:44.005Z,87.00
2017-09-22T17:49:15.083Z,86.30
2017-09-22T17:51:42.658Z,86.70
2017-09-22T17:54:10.711Z,87.10
2017-09-22T17:56:38.248Z,87.30
2017-09-22T17:59:06.707Z,87.60
2017-09-22T18:01:34.210Z,87.90
2017-09-22T18:04:05.446Z,88.20
2017-09-22T18:06:32.952Z,88.60
2017-09-22T18:09:00.476Z,89.00
2017-09-22T18:11:28.031Z,88.80
2017-09-22T18:13:56.488Z,89.10
2017-09-22T18:16:24.003Z,89.40
2017-09-22T18:18:51.863Z,89.80
2017-09-22T18:21:19.870Z,90.20
2017-09-22T18:23:48.147Z,90.20
2017-09-22T18:26:16.224Z,90.20
2017-09-22T18:28:44.052Z,90.40
2017-09-22T18:31:12.670Z,90.70
2017-09-22T18:33:40.607Z,90.60
2017-09-22T18:36:08.171Z,91.00
2017-09-22T18:38:35.764Z,91.10
2017-09-22T18:41:04.038Z,90.90
2017-09-22T18:43:31.587Z,90.90
2017-09-22T18:45:59.771Z,91.00
2017-09-22T18:48:27.307Z,91.30
2017-09-22T18:50:54.866Z,91.30
2017-09-22T18:53:23.183Z,91.40
2017-09-22T18:55:50.758Z,91.20
2017-09-22T18:58:18.815Z,91.30
2017-09-22T19:00:46.694Z,91.50
2017-09-22T19:03:14.206Z,91.50
2017-09-22T19:05:41.835Z,91.40
2017-09-22T19:08:09.358Z,91.20
2017-09-22T19:10:38.476Z,91.50
2017-09-22T19:13:06.032Z,91.50
2017-09-22T19:15:33.652Z,91.50
2017-09-22T19:18:01.187Z,91.60
2017-09-22T19:20:28.933Z,91.60
2017-09-22T19:22:57.239Z,91.40
2017-09-22T19:25:25.555Z,91.00
2017-09-22T19:27:53.119Z,91.00
2017-09-22T19:30:21.601Z,90.90
2017-09-22T19:32:49.683Z,91.20
2017-09-22T19:35:17.242Z,90.90
2017-09-22T19:37:44.786Z,90.80
2017-09-22T19:40:12.286Z,90.70
2017-09-22T19:42:39.823Z,90.60
2017-09-22T19:45:07.339Z,90.60
2017-09-22T19:47:35.680Z,90.60
2017-09-22T19:50:03.361Z,90.50
2017-09-22T19:52:32.057Z,90.50
2017-09-22T19:55:00.075Z,90.50
2017-09-22T19:57:27.874Z,90.30
2017-09-22T19:59:55.399Z,90.50
2017-09-22T20:02:23.036Z,90.50
2017-09-22T20:04:50.855Z,90.70
2017-09-22T20:07:26.703Z,90.80
2017-09-22T20:09:54.220Z,91.00
2017-09-22T20:12:21.758Z,91.20
2017-09-22T20:14:50.226Z,91.20
2017-09-22T20:17:18.642Z,91.80
2017-09-22T20:19:46.191Z,91.50
2017-09-22T20:22:13.750Z,91.50
2017-09-22T20:24:41.300Z,91.50
2017-09-22T20:27:09.607Z,91.60
2017-09-22T20:29:37.123Z,91.60
2017-09-22T20:32:05.432Z,91.70
2017-09-22T20:34:32.986Z,91.70
2017-09-22T20:37:01.138Z,91.80
2017-09-22T20:39:29.453Z,91.50
2017-09-22T20:41:56.969Z,91.50
2017-09-22T20:44:24.555Z,91.50
2017-09-22T20:46:54.611Z,91.50
2017-09-22T20:49:22.259Z,91.50
2017-09-22T20:51:49.830Z,91.50
2017-09-22T20:54:18.314Z,91.50
2017-09-22T20:56:47.395Z,91.70
2017-09-22T20:59:14.956Z,91.60
2017-09-22T21:01:43.808Z,91.80
2017-09-22T21:04:11.343Z,91.80
2017-09-22T21:06:39.698Z,91.90
2017-09-22T21:09:07.495Z,91.90
2017-09-22T21:11:35.844Z,92.10
2017-09-22T21:14:03.551Z,92.10
2017-09-22T21:16:31.071Z,92.20
2017-09-22T21:18:59.026Z,92.40
2017-09-22T21:21:27.162Z,92.70
2017-09-22T21:23:54.680Z,92.40
2017-09-22T21:26:23.015Z,92.70
2017-09-22T21:28:50.614Z,92.70
2017-09-22T21:31:18.889Z,92.80
2017-09-22T21:33:46.555Z,92.80
2017-09-22T21:36:14.102Z,93.20
2017-09-22T21:38:41.659Z,93.20
2017-09-22T21:41:09.311Z,93.40
2017-09-22T21:43:36.855Z,93.40
2017-09-22T21:46:04.906Z,93.50
2017-09-22T21:48:32.460Z,93.70
2017-09-22T21:51:00.304Z,93.60
2017-09-22T21:53:28.575Z,93.50
2017-09-22T21:55:56.455Z,93.50
2017-09-22T21:58:25.479Z,94.20
2017-09-22T22:00:53.144Z,94.20
2017-09-22T22:03:26.436Z,94.20
2017-09-22T22:05:54.555Z,94.20
2017-09-22T22:08:26.042Z,94.60
2017-09-22T22:10:53.553Z,94.20
2017-09-22T22:13:21.151Z,94.40
2017-09-22T22:15:48.724Z,94.40
2017-09-22T22:18:16.476Z,94.30
2017-09-22T22:20:45.343Z,94.20
2017-09-22T22:23:13.191Z,94.20
2017-09-22T22:25:40.727Z,94.10
2017-09-22T22:28:08.243Z,94.10
2017-09-22T22:30:36.522Z,94.30
2017-09-22T22:33:05.543Z,94.40
2017-09-22T22:35:33.096Z,94.40
2017-09-22T22:38:00.611Z,94.60
2017-09-22T22:40:28.655Z,94.70
2017-09-22T22:42:56.868Z,94.60
2017-09-22T22:45:24.457Z,94.50
2017-09-22T22:47:52.111Z,94.30
2017-09-22T22:50:19.613Z,94.20
2017-09-22T22:52:47.125Z,93.30
2017-09-22T22:55:18.527Z,92.80
2017-09-22T22:57:46.856Z,92.70
2017-09-22T23:00:14.439Z,92.60
2017-09-22T23:02:43.631Z,93.10
2017-09-22T23:05:11.385Z,92.80
2017-09-22T23:07:38.891Z,92.90
2017-09-22T23:10:06.399Z,92.90
2017-09-22T23:12:34.851Z,93.00
2017-09-22T23:15:03.315Z,93.70
2017-09-22T23:17:30.864Z,93.70
2017-09-22T23:19:58.390Z,93.90
2017-09-22T23:22:26.809Z,94.00
2017-09-22T23:24:58.106Z,94.10
2017-09-22T23:27:25.617Z,94.30
2017-09-22T23:29:53.193Z,94.40
2017-09-22T23:32:21.067Z,94.50
2017-09-22T23:34:48.600Z,94.60
2017-09-22T23:37:17.175Z,94.80
2017-09-22T23:39:48.088Z,94.80
2017-09-22T23:42:15.643Z,94.70
2017-09-22T23:44:43.326Z,94.80
2017-09-22T23:47:11.376Z,94.90
2017-09-22T23:49:38.932Z,94.90
2017-09-22T23:52:07.207Z,95.10
2017-09-22T23:54:34.949Z,95.10
2017-09-22T23:57:02.448Z,95.10
2017-09-22T23:59:30.855Z,94.90
